Time;durP1;ratioP1;P1;durP2;ratioP2;P2;SDS_P1;SDS_P2;PMS_P1;PMS_P2;Temp;Humidity;BMP_temperature;BMP_pressure;BME280_temperature;BME280_humidity;BME280_pressure;Samples;Min_cycle;Max_cycle;Signal;HPM_P1;HPM_P2
2023/03/29 00:00:37;;;;;;;9.53;3.73;;;;;;;;;;5004585;28;20046;-76
2023/03/29 00:03:04;;;;;;;6.33;2.90;;;;;;;;;;4987161;28;20127;-75
2023/03/29 00:05:32;;;;;;;6.80;2.67;;;;;;;;;;4993809;28;20045;-76
2023/03/29 00:08:02;;;;;;;9.20;3.50;;;;;;;;;;4992500;28;20022;-75
2023/03/29 00:10:30;;;;;;;4.67;2.97;;;;;;;;;;4985784;28;20117;-75
2023/03/29 00:12:56;;;;;;;5.60;3.73;;;;;;;;;;4989370;28;20045;-76
2023/03/29 00:15:22;;;;;;;5.90;2.93;;;;;;;;;;4984300;28;20045;-76
2023/03/29 00:17:48;;;;;;;4.87;2.83;;;;;;;;;;5004156;28;20041;-76
2023/03/29 00:20:16;;;;;;;7.57;3.30;;;;;;;;;;4991228;28;20053;-75
2023/03/29 00:22:43;;;;;;;6.40;2.93;;;;;;;;;;4985093;28;20030;-76
2023/03/29 00:25:12;;;;;;;5.73;3.20;;;;;;;;;;4988164;28;20387;-76
2023/03/29 00:27:38;;;;;;;7.20;3.00;;;;;;;;;;4991418;28;20027;-75
2023/03/29 00:30:05;;;;;;;4.90;3.43;;;;;;;;;;4989153;28;20104;-76
2023/03/29 00:32:31;;;;;;;7.43;3.17;;;;;;;;;;4990587;28;21821;-75
2023/03/29 00:34:59;;;;;;;7.73;3.37;;;;;;;;;;4985455;28;20459;-76
2023/03/29 00:37:25;;;;;;;8.00;2.97;;;;;;;;;;4984418;28;20109;-75
2023/03/29 00:39:52;;;;;;;8.23;2.87;;;;;;;;;;5005036;28;20033;-76
2023/03/29 00:42:19;;;;;;;5.47;3.70;;;;;;;;;;4985958;28;20033;-74
2023/03/29 00:44:59;;;;;;;5.30;3.00;;;;;;;;;;4995208;28;20037;-75
2023/03/29 00:47:25;;;;;;;8.37;3.17;;;;;;;;;;4985352;28;20622;-76
2023/03/29 00:49:54;;;;;;;4.17;2.63;;;;;;;;;;4984555;28;20120;-74
2023/03/29 00:52:21;;;;;;;7.10;2.63;;;;;;;;;;4990377;28;20025;-76
2023/03/29 00:54:49;;;;;;;8.20;3.10;;;;;;;;;;4991103;28;20033;-75
2023/03/29 00:57:15;;;;;;;4.30;3.07;;;;;;;;;;4987768;28;20034;-75
2023/03/29 00:59:42;;;;;;;4.63;2.67;;;;;;;;;;4993115;28;20030;-75
2023/03/29 01:02:12;;;;;;;6.77;2.80;;;;;;;;;;4983876;28;20101;-76
2023/03/29 01:04:46;;;;;;;8.17;3.27;;;;;;;;;;5006088;28;20022;-75
2023/03/29 01:07:20;;;;;;;5.43;2.63;;;;;;;;;;4990535;28;20030;-76
2023/03/29 01:09:48;;;;;;;9.60;2.93;;;;;;;;;;5005664;28;20037;-76
2023/03/29 01:12:20;;;;;;;7.67;3.30;;;;;;;;;;4991570;28;20087;-75
2023/03/29 01:14:53;;;;;;;6.97;2.88;;;;;;;;;;5004903;28;20037;-74
2023/03/29 01:17:20;;;;;;;7.55;2.67;;;;;;;;;;5005142;28;20038;-76
2023/03/29 01:19:49;;;;;;;8.43;3.10;;;;;;;;;;5003747;28;20029;-74
2023/03/29 01:22:18;;;;;;;5.40;3.03;;;;;;;;;;4991340;28;20073;-75
2023/03/29 01:25:06;;;;;;;7.43;3.13;;;;;;;;;;4988784;28;20120;-76
2023/03/29 01:27:52;;;;;;;3.33;2.57;;;;;;;;;;4990247;28;20030;-75
2023/03/29 01:30:39;;;;;;;6.80;2.80;;;;;;;;;;5003873;28;20034;-77
2023/03/29 01:33:09;;;;;;;5.63;2.80;;;;;;;;;;5004649;28;20092;-76
2023/03/29 01:35:39;;;;;;;5.00;3.23;;;;;;;;;;4985126;28;20134;-76
2023/03/29 01:38:26;;;;;;;6.27;2.97;;;;;;;;;;5005978;28;20022;-76
2023/03/29 01:40:52;;;;;;;6.47;2.77;;;;;;;;;;5007879;28;20041;-77
2023/03/29 01:43:35;;;;;;;8.80;3.40;;;;;;;;;;5006690;28;20040;-75
2023/03/29 01:46:09;;;;;;;6.25;3.00;;;;;;;;;;5007925;28;20514;-76
2023/03/29 01:48:38;;;;;;;5.70;3.03;;;;;;;;;;5007728;28;20025;-76
2023/03/29 01:51:04;;;;;;;6.17;2.97;;;;;;;;;;4985889;28;20152;-77
2023/03/29 01:53:42;;;;;;;9.00;2.77;;;;;;;;;;5005598;28;20112;-76
2023/03/29 01:56:11;;;;;;;9.20;3.97;;;;;;;;;;5008719;28;20030;-75
2023/03/29 01:58:39;;;;;;;5.40;3.27;;;;;;;;;;4998933;28;20037;-76
2023/03/29 02:01:09;;;;;;;11.70;3.77;;;;;;;;;;5009427;28;20443;-76
2023/03/29 02:03:41;;;;;;;6.87;3.00;;;;;;;;;;5008469;28;20034;-77
2023/03/29 02:06:09;;;;;;;5.70;2.53;;;;;;;;;;4989077;28;20037;-76
2023/03/29 02:08:37;;;;;;;5.03;3.07;;;;;;;;;;5010333;28;20029;-75
2023/03/29 02:11:03;;;;;;;5.50;2.47;;;;;;;;;;4991584;28;20026;-76
2023/03/29 02:13:32;;;;;;;4.50;3.00;;;;;;;;;;4993939;28;20095;-76
2023/03/29 02:16:01;;;;;;;6.27;2.70;;;;;;;;;;4994608;28;20026;-75
2023/03/29 02:18:27;;;;;;;12.37;2.77;;;;;;;;;;4989598;28;20084;-76
2023/03/29 02:20:56;;;;;;;4.13;2.33;;;;;;;;;;5007496;28;20064;-76
2023/03/29 02:23:26;;;;;;;5.47;2.90;;;;;;;;;;4985788;28;20037;-76
2023/03/29 02:25:53;;;;;;;7.00;2.93;;;;;;;;;;4985513;28;20018;-76
2023/03/29 02:28:20;;;;;;;5.90;3.33;;;;;;;;;;4986864;28;20461;-76
2023/03/29 02:30:52;;;;;;;7.40;3.03;;;;;;;;;;4995342;28;20443;-76
2023/03/29 02:33:20;;;;;;;4.97;3.20;;;;;;;;;;5006336;28;20129;-77
2023/03/29 02:35:47;;;;;;;6.37;2.90;;;;;;;;;;4994633;28;20041;-76
2023/03/29 02:38:13;;;;;;;9.50;3.63;;;;;;;;;;4989569;28;20033;-77
2023/03/29 02:40:41;;;;;;;5.50;2.90;;;;;;;;;;4985810;28;20033;-77
2023/03/29 02:43:10;;;;;;;7.73;2.87;;;;;;;;;;4986106;28;20435;-76
2023/03/29 02:45:36;;;;;;;5.03;3.00;;;;;;;;;;4993903;28;20498;-76
2023/03/29 02:48:07;;;;;;;6.57;2.97;;;;;;;;;;4987281;28;20026;-76
2023/03/29 02:50:36;;;;;;;7.37;3.30;;;;;;;;;;4993600;28;20033;-76
2023/03/29 02:53:05;;;;;;;6.90;3.40;;;;;;;;;;5006113;28;20045;-75
2023/03/29 02:55:35;;;;;;;5.80;2.43;;;;;;;;;;5005582;28;20545;-75
2023/03/29 02:58:06;;;;;;;15.07;3.00;;;;;;;;;;5007322;28;20068;-75
2023/03/29 03:00:33;;;;;;;3.87;3.20;;;;;;;;;;4986678;28;20030;-76
2023/03/29 03:02:59;;;;;;;9.33;3.23;;;;;;;;;;5008829;28;20289;-76
2023/03/29 03:05:25;;;;;;;7.93;3.13;;;;;;;;;;4993433;28;20037;-76
2023/03/29 03:07:51;;;;;;;5.30;2.63;;;;;;;;;;4993095;28;20057;-76
2023/03/29 03:10:18;;;;;;;5.73;3.30;;;;;;;;;;5007639;28;20116;-76
2023/03/29 03:12:44;;;;;;;5.30;3.17;;;;;;;;;;5004914;28;20026;-76
2023/03/29 03:15:10;;;;;;;7.87;3.40;;;;;;;;;;4984915;28;20529;-76
2023/03/29 03:17:38;;;;;;;4.83;2.93;;;;;;;;;;4990390;28;20030;-75
2023/03/29 03:20:09;;;;;;;5.90;2.87;;;;;;;;;;4993436;28;20079;-75
2023/03/29 03:22:35;;;;;;;6.97;2.83;;;;;;;;;;4987413;28;20097;-76
2023/03/29 03:25:01;;;;;;;4.83;3.00;;;;;;;;;;4985965;28;20121;-75
2023/03/29 03:27:29;;;;;;;4.67;2.87;;;;;;;;;;5006389;28;20439;-75
2023/03/29 03:29:55;;;;;;;5.93;3.47;;;;;;;;;;4995623;28;20030;-76
2023/03/29 03:32:21;;;;;;;5.90;2.70;;;;;;;;;;4990849;28;20040;-76
2023/03/29 03:34:48;;;;;;;7.80;2.90;;;;;;;;;;4992565;28;20117;-77
2023/03/29 03:37:14;;;;;;;8.83;3.23;;;;;;;;;;5004361;28;20084;-76
2023/03/29 03:39:40;;;;;;;8.83;3.07;;;;;;;;;;4988145;28;20482;-75
2023/03/29 03:42:06;;;;;;;6.37;2.83;;;;;;;;;;4988928;28;20034;-76
2023/03/29 03:44:32;;;;;;;4.90;2.83;;;;;;;;;;5005019;28;20439;-77
2023/03/29 03:46:58;;;;;;;8.80;3.40;;;;;;;;;;5005818;28;20022;-76
2023/03/29 03:49:24;;;;;;;7.67;3.40;;;;;;;;;;4988568;28;20107;-76
2023/03/29 03:51:51;;;;;;;6.57;3.50;;;;;;;;;;4991338;28;20034;-76
2023/03/29 03:54:17;;;;;;;9.20;3.87;;;;;;;;;;4996701;28;20030;-76
2023/03/29 03:56:43;;;;;;;8.37;3.50;;;;;;;;;;5005255;28;20386;-75
2023/03/29 03:59:09;;;;;;;5.40;2.93;;;;;;;;;;5004737;28;20042;-77
2023/03/29 04:01:42;;;;;;;7.50;3.63;;;;;;;;;;4991905;28;20037;-76
2023/03/29 04:04:13;;;;;;;6.03;2.90;;;;;;;;;;4991945;28;20074;-76
2023/03/29 04:06:42;;;;;;;7.23;3.53;;;;;;;;;;4988803;28;20124;-76
2023/03/29 04:09:10;;;;;;;6.43;3.17;;;;;;;;;;5003611;28;20038;-76
2023/03/29 04:11:36;;;;;;;5.90;3.50;;;;;;;;;;4988343;28;20540;-77
2023/03/29 04:14:03;;;;;;;10.80;3.17;;;;;;;;;;5006652;28;20085;-76
2023/03/29 04:16:29;;;;;;;8.93;2.97;;;;;;;;;;5004599;28;20041;-75
2023/03/29 04:18:55;;;;;;;10.23;2.97;;;;;;;;;;4989264;28;22183;-77
2023/03/29 04:21:22;;;;;;;8.77;3.20;;;;;;;;;;4995175;28;20053;-76
2023/03/29 04:23:48;;;;;;;7.30;3.13;;;;;;;;;;4985124;28;20435;-75
2023/03/29 04:26:14;;;;;;;5.40;3.17;;;;;;;;;;5007196;28;20029;-76
2023/03/29 04:28:41;;;;;;;5.50;3.47;;;;;;;;;;5003925;28;20034;-76
2023/03/29 04:31:11;;;;;;;5.63;3.40;;;;;;;;;;4988979;28;20030;-76
2023/03/29 04:33:37;;;;;;;5.33;3.30;;;;;;;;;;4985181;28;20041;-76
2023/03/29 04:36:04;;;;;;;6.33;3.23;;;;;;;;;;5003619;28;20026;-75
2023/03/29 04:38:30;;;;;;;7.13;3.57;;;;;;;;;;5003609;28;20610;-75
2023/03/29 04:40:57;;;;;;;5.23;3.23;;;;;;;;;;4985038;28;20037;-77
2023/03/29 04:43:23;;;;;;;7.37;3.20;;;;;;;;;;4993535;28;20030;-76
2023/03/29 04:45:49;;;;;;;5.40;3.40;;;;;;;;;;4992381;28;20022;-76
2023/03/29 04:48:15;;;;;;;10.20;3.90;;;;;;;;;;5003531;28;20112;-77
2023/03/29 04:50:41;;;;;;;9.00;3.63;;;;;;;;;;4981963;28;20062;-75
2023/03/29 04:53:07;;;;;;;5.70;3.63;;;;;;;;;;4993734;28;20068;-76
2023/03/29 04:55:35;;;;;;;6.53;3.57;;;;;;;;;;5003633;28;20742;-76
2023/03/29 04:58:04;;;;;;;8.30;4.17;;;;;;;;;;4982296;28;20042;-76
2023/03/29 05:00:32;;;;;;;8.43;4.00;;;;;;;;;;4990939;28;20029;-74
2023/03/29 05:02:58;;;;;;;8.23;4.80;;;;;;;;;;4988993;28;20398;-76
2023/03/29 05:05:24;;;;;;;6.47;3.17;;;;;;;;;;5002147;28;20030;-76
2023/03/29 05:07:50;;;;;;;8.07;4.20;;;;;;;;;;4986658;28;20423;-76
2023/03/29 05:10:17;;;;;;;7.77;4.77;;;;;;;;;;5000946;28;20629;-75
2023/03/29 05:12:43;;;;;;;14.03;5.83;;;;;;;;;;4985419;28;20422;-76
2023/03/29 05:15:09;;;;;;;7.10;4.20;;;;;;;;;;5005129;28;20046;-76
2023/03/29 05:17:35;;;;;;;15.63;7.33;;;;;;;;;;4983894;28;20084;-75
2023/03/29 05:20:07;;;;;;;12.53;5.77;;;;;;;;;;4989166;28;20038;-76
2023/03/29 05:22:35;;;;;;;10.90;6.30;;;;;;;;;;4990855;28;20073;-76
2023/03/29 05:25:01;;;;;;;11.43;6.03;;;;;;;;;;5005104;28;20026;-76
2023/03/29 05:27:28;;;;;;;12.70;7.13;;;;;;;;;;4986370;28;20050;-76
2023/03/29 05:29:54;;;;;;;15.70;7.77;;;;;;;;;;4988826;28;20081;-76
2023/03/29 05:32:21;;;;;;;13.50;8.43;;;;;;;;;;4983479;28;20596;-75
2023/03/29 05:34:49;;;;;;;14.00;8.40;;;;;;;;;;5003461;28;20045;-76
2023/03/29 05:37:15;;;;;;;15.83;7.67;;;;;;;;;;5000250;28;20030;-77
2023/03/29 05:39:42;;;;;;;14.63;8.27;;;;;;;;;;4986734;28;20073;-75
2023/03/29 05:42:11;;;;;;;16.27;7.33;;;;;;;;;;4984069;28;20088;-77
2023/03/29 05:44:37;;;;;;;13.87;6.80;;;;;;;;;;4989608;28;20030;-77
2023/03/29 05:47:03;;;;;;;14.27;8.50;;;;;;;;;;4990998;28;20486;-76
2023/03/29 05:49:29;;;;;;;9.33;5.93;;;;;;;;;;4986637;28;20057;-77
2023/03/29 05:51:55;;;;;;;6.53;3.73;;;;;;;;;;4983660;28;20057;-77
2023/03/29 05:54:22;;;;;;;10.40;5.13;;;;;;;;;;4987769;28;20062;-77
2023/03/29 05:56:48;;;;;;;9.40;3.50;;;;;;;;;;4989408;28;20037;-76
2023/03/29 05:59:16;;;;;;;8.87;4.17;;;;;;;;;;4992081;28;21689;-77
2023/03/29 06:01:45;;;;;;;7.00;3.10;;;;;;;;;;5003690;28;20018;-77
2023/03/29 06:04:11;;;;;;;6.90;3.53;;;;;;;;;;4990733;28;20034;-77
2023/03/29 06:06:37;;;;;;;6.97;3.40;;;;;;;;;;4984011;28;20030;-78
2023/03/29 06:09:04;;;;;;;5.20;2.80;;;;;;;;;;4990918;28;20443;-76
2023/03/29 06:11:30;;;;;;;7.73;3.40;;;;;;;;;;4990836;28;20041;-75
2023/03/29 06:13:58;;;;;;;10.30;3.23;;;;;;;;;;4988899;28;20522;-76
2023/03/29 06:16:25;;;;;;;10.07;3.23;;;;;;;;;;4986498;28;20045;-77
2023/03/29 06:18:53;;;;;;;8.07;3.30;;;;;;;;;;5002690;28;21640;-77
2023/03/29 06:21:19;;;;;;;9.20;3.77;;;;;;;;;;4986232;28;20030;-76
2023/03/29 06:23:47;;;;;;;9.53;3.87;;;;;;;;;;5006640;28;21596;-76
2023/03/29 06:26:13;;;;;;;9.00;4.13;;;;;;;;;;4996809;28;20033;-76
2023/03/29 06:28:39;;;;;;;7.60;4.13;;;;;;;;;;5006988;28;20049;-76
2023/03/29 06:31:05;;;;;;;9.80;3.67;;;;;;;;;;4993173;28;20065;-76
2023/03/29 06:33:32;;;;;;;8.87;4.00;;;;;;;;;;4990591;28;20480;-75
2023/03/29 06:35:58;;;;;;;10.30;3.67;;;;;;;;;;4986030;28;20023;-76
2023/03/29 06:38:27;;;;;;;5.37;3.47;;;;;;;;;;5003896;28;20041;-76
2023/03/29 06:41:02;;;;;;;7.33;3.77;;;;;;;;;;4993310;28;20080;-76
2023/03/29 06:43:28;;;;;;;9.97;4.57;;;;;;;;;;5007594;28;20034;-75
2023/03/29 06:45:54;;;;;;;7.60;3.57;;;;;;;;;;4992411;28;20096;-76
2023/03/29 06:48:20;;;;;;;8.70;3.30;;;;;;;;;;5006398;28;20121;-75
2023/03/29 06:50:47;;;;;;;9.40;4.10;;;;;;;;;;4997837;28;20096;-76
2023/03/29 06:53:14;;;;;;;7.37;3.47;;;;;;;;;;5004862;28;20041;-76
2023/03/29 06:55:40;;;;;;;8.10;3.97;;;;;;;;;;5004243;28;20063;-76
2023/03/29 06:58:08;;;;;;;12.07;3.93;;;;;;;;;;4986749;28;20136;-76
2023/03/29 07:00:36;;;;;;;7.27;3.90;;;;;;;;;;4989746;28;20037;-77
2023/03/29 07:03:08;;;;;;;5.93;3.80;;;;;;;;;;4992346;28;20026;-77
2023/03/29 07:05:35;;;;;;;6.35;3.10;;;;;;;;;;5006983;28;20026;-77
2023/03/29 07:10:32;;;;;;;4.53;3.03;;;;;;;;;;5004546;28;20038;-76
2023/03/29 07:12:59;;;;;;;9.40;2.93;;;;;;;;;;4992691;28;20026;-77
2023/03/29 07:15:26;;;;;;;5.97;3.10;;;;;;;;;;4987716;28;20034;-75
2023/03/29 07:17:52;;;;;;;4.17;2.73;;;;;;;;;;4984365;28;20034;-76
2023/03/29 07:20:18;;;;;;;11.63;3.77;;;;;;;;;;4989209;28;20030;-78
2023/03/29 07:22:46;;;;;;;4.60;3.00;;;;;;;;;;4991011;28;20033;-77
2023/03/29 07:25:15;;;;;;;8.50;3.87;;;;;;;;;;5004935;28;20155;-76
2023/03/29 07:27:43;;;;;;;4.40;2.83;;;;;;;;;;5001086;28;20080;-76
2023/03/29 07:30:10;;;;;;;6.97;3.33;;;;;;;;;;4986061;28;20035;-76
2023/03/29 07:32:40;;;;;;;8.03;3.30;;;;;;;;;;5003820;28;20070;-76
2023/03/29 07:35:07;;;;;;;6.33;3.17;;;;;;;;;;5003725;28;20029;-76
2023/03/29 07:37:34;;;;;;;9.67;3.60;;;;;;;;;;4990177;28;20100;-76
2023/03/29 07:40:02;;;;;;;9.30;3.87;;;;;;;;;;5002408;28;20026;-76
2023/03/29 07:42:29;;;;;;;9.50;3.37;;;;;;;;;;5001411;28;20525;-75
2023/03/29 07:44:55;;;;;;;10.87;3.03;;;;;;;;;;4990577;28;20038;-76
2023/03/29 07:47:22;;;;;;;9.47;3.53;;;;;;;;;;4991403;28;20781;-75
2023/03/29 07:49:47;;;;;;;7.43;3.30;;;;;;;;;;5004154;28;20105;-76
2023/03/29 07:52:13;;;;;;;6.67;4.00;;;;;;;;;;4985998;28;20453;-76
2023/03/29 07:54:39;;;;;;;5.27;2.80;;;;;;;;;;5001536;28;20056;-75
2023/03/29 07:57:05;;;;;;;10.50;2.90;;;;;;;;;;5004929;28;20022;-76
2023/03/29 07:59:31;;;;;;;7.90;3.00;;;;;;;;;;5004311;28;20034;-75
2023/03/29 08:01:58;;;;;;;6.73;2.90;;;;;;;;;;4989215;28;20908;-76
2023/03/29 08:04:24;;;;;;;6.80;3.33;;;;;;;;;;4990551;28;20034;-75
2023/03/29 08:06:53;;;;;;;6.30;3.20;;;;;;;;;;4987845;28;20048;-75
2023/03/29 08:09:19;;;;;;;4.97;2.87;;;;;;;;;;4987998;28;20818;-76
2023/03/29 08:11:47;;;;;;;9.13;2.67;;;;;;;;;;5002059;28;20041;-76
2023/03/29 08:14:13;;;;;;;5.67;2.90;;;;;;;;;;5003776;28;20037;-77
2023/03/29 08:16:40;;;;;;;7.03;3.07;;;;;;;;;;5006266;28;20062;-77
2023/03/29 08:19:06;;;;;;;9.27;3.73;;;;;;;;;;4987056;28;20037;-76
2023/03/29 08:21:32;;;;;;;13.97;3.63;;;;;;;;;;5004482;28;20041;-76
2023/03/29 08:23:58;;;;;;;10.47;3.47;;;;;;;;;;5002148;28;20030;-76
2023/03/29 08:26:24;;;;;;;7.00;3.23;;;;;;;;;;5004762;28;20482;-76
2023/03/29 08:28:52;;;;;;;6.53;3.50;;;;;;;;;;4991046;28;20026;-76
2023/03/29 08:31:18;;;;;;;6.43;3.13;;;;;;;;;;4983988;28;20025;-76
2023/03/29 08:33:44;;;;;;;9.67;4.10;;;;;;;;;;4983690;28;20092;-76
2023/03/29 08:36:10;;;;;;;8.67;3.40;;;;;;;;;;4989766;28;20030;-76
2023/03/29 08:38:36;;;;;;;7.03;3.30;;;;;;;;;;4989239;28;20022;-76
2023/03/29 08:41:10;;;;;;;5.03;2.80;;;;;;;;;;4998069;28;20036;-79
2023/03/29 08:43:51;;;;;;;8.03;3.13;;;;;;;;;;5003482;28;20058;-77
2023/03/29 08:46:30;;;;;;;8.33;4.33;;;;;;;;;;4987189;28;20091;-76
2023/03/29 08:48:58;;;;;;;8.50;3.03;;;;;;;;;;5003918;28;20030;-75
2023/03/29 08:51:27;;;;;;;7.23;3.17;;;;;;;;;;4986068;28;20031;-76
2023/03/29 08:53:55;;;;;;;8.53;3.20;;;;;;;;;;4984632;28;20030;-75
2023/03/29 08:56:24;;;;;;;6.80;3.00;;;;;;;;;;4986935;28;20041;-77
2023/03/29 08:58:50;;;;;;;7.40;3.13;;;;;;;;;;5007863;28;20060;-76
2023/03/29 09:01:17;;;;;;;7.07;3.70;;;;;;;;;;4991902;28;20038;-77
2023/03/29 09:04:02;;;;;;;14.73;3.40;;;;;;;;;;4991158;28;20148;-76
2023/03/29 09:06:28;;;;;;;7.10;3.23;;;;;;;;;;5002800;28;20050;-77
2023/03/29 09:08:54;;;;;;;5.83;3.00;;;;;;;;;;4989900;28;20403;-76
2023/03/29 09:11:23;;;;;;;6.40;3.30;;;;;;;;;;5002368;28;20068;-76
2023/03/29 09:14:21;;;;;;;7.37;3.50;;;;;;;;;;5003143;28;20029;-76
2023/03/29 09:17:07;;;;;;;5.90;2.70;;;;;;;;;;4951679;28;20060;-75
2023/03/29 09:19:48;;;;;;;6.33;3.17;;;;;;;;;;5002949;28;20061;-76
2023/03/29 09:22:22;;;;;;;5.43;3.03;;;;;;;;;;5002492;28;20054;-75
2023/03/29 09:25:07;;;;;;;9.17;3.37;;;;;;;;;;5003069;28;20107;-76
2023/03/29 09:27:34;;;;;;;9.23;3.60;;;;;;;;;;4987069;28;20034;-75
2023/03/29 09:30:07;;;;;;;8.60;3.20;;;;;;;;;;5000251;28;20030;-75
2023/03/29 09:32:43;;;;;;;8.10;3.28;;;;;;;;;;4985925;28;20084;-76
2023/03/29 09:35:22;;;;;;;9.13;3.23;;;;;;;;;;4987250;28;20185;-76
2023/03/29 09:37:50;;;;;;;8.30;3.63;;;;;;;;;;4982541;28;20396;-75
2023/03/29 09:40:36;;;;;;;7.90;3.37;;;;;;;;;;4989597;28;20058;-75
2023/03/29 09:43:03;;;;;;;11.03;3.00;;;;;;;;;;5002140;28;20026;-76
2023/03/29 09:45:32;;;;;;;6.43;3.40;;;;;;;;;;4983919;28;20117;-76
2023/03/29 09:48:02;;;;;;;12.27;3.63;;;;;;;;;;5003109;28;20454;-75
2023/03/29 09:50:40;;;;;;;11.40;3.83;;;;;;;;;;5001983;28;20026;-75
2023/03/29 09:53:08;;;;;;;7.43;3.67;;;;;;;;;;4994946;28;20034;-76
2023/03/29 09:55:36;;;;;;;8.40;3.23;;;;;;;;;;5000615;28;20065;-75
2023/03/29 09:58:09;;;;;;;7.63;3.17;;;;;;;;;;4989132;28;20034;-75
2023/03/29 10:00:35;;;;;;;6.50;2.90;;;;;;;;;;5006554;28;20026;-76
2023/03/29 10:03:04;;;;;;;5.97;3.73;;;;;;;;;;4991481;28;20022;-76
2023/03/29 10:05:35;;;;;;;9.03;3.57;;;;;;;;;;5006553;28;20113;-76
2023/03/29 10:08:06;;;;;;;9.43;3.95;;;;;;;;;;4993156;28;20025;-75
2023/03/29 10:10:34;;;;;;;5.87;4.13;;;;;;;;;;4987971;28;20038;-76
2023/03/29 10:13:10;;;;;;;14.80;7.30;;;;;;;;;;4989611;28;20030;-76
2023/03/29 10:15:38;;;;;;;7.35;3.85;;;;;;;;;;5007191;28;20065;-75
2023/03/29 10:18:11;;;;;;;10.85;4.65;;;;;;;;;;4994079;28;20034;-77
2023/03/29 10:20:38;;;;;;;15.57;5.03;;;;;;;;;;5005956;28;20034;-77
2023/03/29 10:23:05;;;;;;;6.72;3.28;;;;;;;;;;5004736;28;20486;-76
2023/03/29 10:25:33;;;;;;;10.57;4.07;;;;;;;;;;5007244;28;20029;-75
2023/03/29 10:28:16;;;;;;;11.40;3.53;;;;;;;;;;5005315;28;20098;-75
2023/03/29 10:30:44;;;;;;;5.93;3.50;;;;;;;;;;5006590;28;20130;-76
2023/03/29 10:33:22;;;;;;;7.72;4.07;;;;;;;;;;5005401;28;20100;-76
2023/03/29 10:35:51;;;;;;;7.45;3.92;;;;;;;;;;4987768;28;20089;-76
2023/03/29 10:38:19;;;;;;;8.23;3.05;;;;;;;;;;4989079;28;20117;-76
2023/03/29 10:40:46;;;;;;;8.40;4.18;;;;;;;;;;5005421;28;20446;-77
2023/03/29 10:43:15;;;;;;;10.55;3.40;;;;;;;;;;5007420;28;20126;-76
2023/03/29 10:45:46;;;;;;;12.77;4.82;;;;;;;;;;4989025;28;20061;-75
2023/03/29 10:48:14;;;;;;;8.85;3.70;;;;;;;;;;5007272;28;20058;-74
2023/03/29 10:50:40;;;;;;;11.45;4.70;;;;;;;;;;4990128;28;20124;-75
2023/03/29 10:53:12;;;;;;;9.80;3.95;;;;;;;;;;4994014;28;20064;-76
2023/03/29 10:55:43;;;;;;;10.32;3.72;;;;;;;;;;4985928;28;20036;-76
2023/03/29 10:58:14;;;;;;;9.77;4.65;;;;;;;;;;5006551;28;20079;-76
2023/03/29 11:00:43;;;;;;;9.65;3.53;;;;;;;;;;4985427;28;20033;-76
2023/03/29 11:03:29;;;;;;;8.90;3.30;;;;;;;;;;4992210;28;20033;-75
2023/03/29 11:06:03;;;;;;;12.73;3.63;;;;;;;;;;4992358;28;20030;-75
2023/03/29 11:08:48;;;;;;;6.50;3.47;;;;;;;;;;5002928;28;20086;-76
2023/03/29 11:11:29;;;;;;;9.63;3.78;;;;;;;;;;4992046;28;20092;-76
2023/03/29 11:14:07;;;;;;;8.88;3.58;;;;;;;;;;4992044;28;20022;-76
2023/03/29 11:16:33;;;;;;;6.05;3.45;;;;;;;;;;5005088;28;20042;-75
2023/03/29 11:19:05;;;;;;;7.53;2.83;;;;;;;;;;4984228;28;20125;-76
2023/03/29 11:21:34;;;;;;;5.93;3.00;;;;;;;;;;4988744;28;20140;-75
2023/03/29 11:24:19;;;;;;;17.05;3.78;;;;;;;;;;5004474;28;20153;-76
2023/03/29 11:26:51;;;;;;;8.23;3.08;;;;;;;;;;4987166;28;20030;-76
2023/03/29 11:29:26;;;;;;;8.50;3.35;;;;;;;;;;4985765;28;20026;-75
2023/03/29 11:32:06;;;;;;;5.07;2.83;;;;;;;;;;4992534;28;20046;-75
2023/03/29 11:34:47;;;;;;;8.25;3.30;;;;;;;;;;5001488;28;20116;-76
2023/03/29 11:37:20;;;;;;;6.90;3.50;;;;;;;;;;4992754;28;20415;-76
2023/03/29 11:39:46;;;;;;;8.38;2.80;;;;;;;;;;5003568;28;20129;-75
2023/03/29 11:42:16;;;;;;;7.50;4.03;;;;;;;;;;4991590;28;20025;-76
2023/03/29 11:44:44;;;;;;;5.18;2.60;;;;;;;;;;5003119;28;20034;-76
2023/03/29 11:47:14;;;;;;;7.63;3.38;;;;;;;;;;4985984;28;20041;-76
2023/03/29 11:49:41;;;;;;;5.47;2.50;;;;;;;;;;4992312;28;20144;-76
2023/03/29 11:52:07;;;;;;;6.15;2.50;;;;;;;;;;5004038;28;20474;-76
2023/03/29 11:54:34;;;;;;;7.15;2.80;;;;;;;;;;4994925;28;20033;-76
2023/03/29 11:57:12;;;;;;;8.60;2.90;;;;;;;;;;4984514;28;20111;-75
2023/03/29 12:00:00;;;;;;;9.05;2.70;;;;;;;;;;5004563;28;20077;-77
2023/03/29 12:02:29;;;;;;;5.10;1.92;;;;;;;;;;5004690;28;20034;-76
2023/03/29 12:04:57;;;;;;;6.53;2.30;;;;;;;;;;4985602;28;20029;-76
2023/03/29 12:07:32;;;;;;;4.05;1.63;;;;;;;;;;4983564;28;20036;-76
2023/03/29 12:10:01;;;;;;;7.32;1.65;;;;;;;;;;5005067;28;20575;-76
2023/03/29 12:12:27;;;;;;;4.05;1.27;;;;;;;;;;5003713;28;20042;-76
2023/03/29 12:15:02;;;;;;;4.13;1.70;;;;;;;;;;4982581;28;21771;-76
2023/03/29 12:17:41;;;;;;;3.38;1.48;;;;;;;;;;4993319;28;20034;-75
2023/03/29 12:20:07;;;;;;;6.95;1.58;;;;;;;;;;5002090;28;20030;-75
2023/03/29 12:22:34;;;;;;;3.17;1.80;;;;;;;;;;4988350;28;20080;-76
2023/03/29 12:25:02;;;;;;;4.50;1.67;;;;;;;;;;5003185;28;20033;-76
2023/03/29 12:27:30;;;;;;;4.40;1.63;;;;;;;;;;5003836;28;20084;-76
2023/03/29 12:30:08;;;;;;;5.03;1.27;;;;;;;;;;5003300;28;20029;-75
2023/03/29 12:32:40;;;;;;;3.08;1.08;;;;;;;;;;5002214;28;20065;-76
2023/03/29 12:35:39;;;;;;;1.98;1.05;;;;;;;;;;5005826;28;20033;-78
2023/03/29 12:38:09;;;;;;;2.95;1.20;;;;;;;;;;4967583;28;20129;-76
2023/03/29 12:40:40;;;;;;;4.55;1.35;;;;;;;;;;4988941;28;20034;-76
2023/03/29 12:43:07;;;;;;;3.75;1.17;;;;;;;;;;4984444;28;20026;-76
2023/03/29 12:45:36;;;;;;;4.07;0.90;;;;;;;;;;4987662;28;20107;-75
2023/03/29 12:48:08;;;;;;;1.95;0.70;;;;;;;;;;5005466;28;20069;-75
2023/03/29 12:50:35;;;;;;;3.20;1.20;;;;;;;;;;5006498;28;20049;-75
2023/03/29 12:53:06;;;;;;;4.28;1.35;;;;;;;;;;5005195;28;20891;-76
2023/03/29 12:55:34;;;;;;;4.50;1.10;;;;;;;;;;5005493;28;20033;-75
2023/03/29 12:58:05;;;;;;;4.25;1.17;;;;;;;;;;4985598;28;20037;-76
2023/03/29 13:00:34;;;;;;;2.40;0.85;;;;;;;;;;5003607;28;20239;-76
2023/03/29 13:03:07;;;;;;;2.72;0.90;;;;;;;;;;4983369;28;20022;-76
2023/03/29 13:05:35;;;;;;;3.28;0.95;;;;;;;;;;5001577;28;20034;-76
2023/03/29 13:08:37;;;;;;;3.92;1.50;;;;;;;;;;4988014;28;20041;-77
2023/03/29 13:11:04;;;;;;;3.85;1.38;;;;;;;;;;4902299;29;20028;-76
2023/03/29 13:13:30;;;;;;;3.83;1.08;;;;;;;;;;4971896;28;20034;-75
2023/03/29 13:16:08;;;;;;;1.80;1.10;;;;;;;;;;5002825;28;20034;-75
2023/03/29 13:18:52;;;;;;;2.95;1.10;;;;;;;;;;5004376;28;20064;-75
2023/03/29 13:21:33;;;;;;;3.55;1.30;;;;;;;;;;5003890;28;20034;-77
2023/03/29 13:24:15;;;;;;;3.85;0.93;;;;;;;;;;5004229;28;20152;-77
2023/03/29 13:26:50;;;;;;;4.00;1.20;;;;;;;;;;5003673;28;20509;-77
2023/03/29 13:29:28;;;;;;;2.88;1.08;;;;;;;;;;4983254;28;20268;-76
2023/03/29 13:32:04;;;;;;;3.42;1.10;;;;;;;;;;4986435;28;20112;-75
2023/03/29 13:34:36;;;;;;;2.70;0.98;;;;;;;;;;5005615;28;20144;-76
2023/03/29 13:37:02;;;;;;;;;;;;;;;;;;5008428;28;20094;-76
2023/03/29 13:39:30;;;;;;;2.95;1.17;;;;;;;;;;4994220;28;20309;-75
2023/03/29 13:42:26;;;;;;;4.82;1.05;;;;;;;;;;5006843;28;20451;-77
2023/03/29 13:44:52;;;;;;;3.08;0.98;;;;;;;;;;4978227;28;20038;-77
2023/03/29 13:47:18;;;;;;;4.15;1.30;;;;;;;;;;4987380;28;20030;-76
2023/03/29 13:49:49;;;;;;;2.00;0.75;;;;;;;;;;4993798;28;20053;-77
2023/03/29 13:52:19;;;;;;;1.95;0.90;;;;;;;;;;5006946;28;20037;-77
2023/03/29 13:54:55;;;;;;;2.50;0.80;;;;;;;;;;4988044;28;21204;-77
2023/03/29 13:57:56;;;;;;;2.28;0.75;;;;;;;;;;4993516;28;20063;-76
2023/03/29 14:00:27;;;;;;;2.10;1.02;;;;;;;;;;4932294;29;20064;-76
2023/03/29 14:02:55;;;;;;;2.70;1.20;;;;;;;;;;4978817;28;20034;-76
2023/03/29 14:05:28;;;;;;;1.30;0.90;;;;;;;;;;5005648;28;20030;-76
2023/03/29 14:07:54;;;;;;;3.05;1.02;;;;;;;;;;4986535;28;20022;-76
2023/03/29 14:10:26;;;;;;;2.65;1.30;;;;;;;;;;5005272;28;20030;-76
2023/03/29 14:12:52;;;;;;;3.25;1.23;;;;;;;;;;5007495;28;20052;-77
2023/03/29 14:15:34;;;;;;;3.08;1.40;;;;;;;;;;5004475;28;20034;-76
2023/03/29 14:18:03;;;;;;;;;;;;;;;;;;4994486;28;20029;-76
2023/03/29 14:20:30;;;;;;;3.05;1.20;;;;;;;;;;4988223;28;20704;-77
2023/03/29 14:22:56;;;;;;;3.97;1.20;;;;;;;;;;4985833;28;20026;-76
2023/03/29 14:25:23;;;;;;;2.58;1.10;;;;;;;;;;5006546;28;21795;-77
2023/03/29 14:27:49;;;;;;;3.45;1.02;;;;;;;;;;5006629;28;20092;-76
2023/03/29 14:30:35;;;;;;;4.10;1.05;;;;;;;;;;5005281;28;20038;-76
2023/03/29 14:33:03;;;;;;;3.90;1.13;;;;;;;;;;5006454;28;20030;-76
2023/03/29 14:35:32;;;;;;;4.18;1.40;;;;;;;;;;5005519;28;20125;-77
2023/03/29 14:38:02;;;;;;;3.45;1.40;;;;;;;;;;4992265;28;20044;-77
2023/03/29 14:40:29;;;;;;;4.30;1.08;;;;;;;;;;4982090;28;20026;-75
2023/03/29 14:42:55;;;;;;;2.35;1.10;;;;;;;;;;4987574;28;20026;-76
2023/03/29 14:45:25;;;;;;;3.85;1.42;;;;;;;;;;5005611;28;20034;-75
2023/03/29 14:47:51;;;;;;;4.18;1.80;;;;;;;;;;4992992;28;20213;-76
2023/03/29 14:50:19;;;;;;;4.53;1.38;;;;;;;;;;4991961;28;20064;-77
2023/03/29 14:52:46;;;;;;;2.55;1.20;;;;;;;;;;4989180;28;20128;-76
2023/03/29 14:55:15;;;;;;;5.22;1.42;;;;;;;;;;4992691;28;20885;-77
2023/03/29 14:57:41;;;;;;;3.67;1.40;;;;;;;;;;4997718;28;20029;-75
2023/03/29 15:00:25;;;;;;;7.95;1.90;;;;;;;;;;4986801;28;20125;-76